Terminal Aerodrome Forecast
Issued by NWS Cleveland, OH

Home | Current Version | Previous Version | Graphics & Text | Print | Product List | Glossary Off
Versions: 1 2 3 4 5 6 7 8 9 10 11 12 13 14 15 16 17 18 19 20 21 22 23 24 25 26

666
FTUS41 KCLE 120903 AAA
TAFCLE
TAF AMD
KCLE 120903Z 1209/1312 22005KT P6SM OVC045
     FM121200 22012KT P6SM SCT045
     FM121800 24014G24KT 6SM -SN OVC035
     FM122100 26016G26KT 2SM -SN OVC012
     FM130400 32016G26KT 3SM -SN OVC025=

USA.gov is the U.S. government's official web portal to all federal, state and local government web resources and services.